• Join FlightAware (Why Join?)
  • Login
  • US Flag 
06:23AM EDT


 

Airport Tracker/Info


-or-


 

Live Flight TrackerFlight Track Log ✈ EJA922 ✈ 27-Feb-2014 ✈ KRIC - KTEB

Flight Track Log - Related Links

Times and Time Zones

All times are in EST time to prevent confusion due to time zone crossing. See the EJA922 flight status page for this flight to view local times or setup timezone preferences in your user account.

Time Position Orientation Groundspeed Altitude Reporting Facility
EST Latitude Longitude Course Direction KTS MPH feet Rate Location/Type
05:49PM 37.5564 -77.2919 46° Northeast 219 252 2,700  Level Washington Center
05:50PM 37.6011 -77.2328 46° Northeast 266 306 6,300 3,300 Climbing Washington Center
05:51PM 37.6583 -77.1631 44° Northeast 285 328 9,500 2,520 Climbing Washington Center
05:52PM 37.7303 -77.0858 40° Northeast 308 354 11,400 1,740 Climbing Washington Center
05:53PM 37.8189 -76.9983 38° Northeast 356 410 13,000 720 Climbing Washington Center
05:54PM 37.9136 -76.9000 39° Northeast 406 467 12,900  Descending Washington Center
05:55PM 38.0474 -76.7147 46° Northeast  Level FlightAware Approximate
05:55PM 37.9983 -76.7908 45° Northeast 423 487 13,000  Level Washington Center
05:56PM 38.0828 -76.6839 45° Northeast 428 493 15,500 1,920 Climbing Washington Center
05:57PM 38.1672 -76.5664 48° Northeast 435 501 17,000 780 Climbing Washington Center
05:58PM 38.2597 -76.4406 47° Northeast 454 522 17,100  Climbing Washington Center
05:59PM 38.3644 -76.3861 22° Northeast 448 516 17,100 -60 Level Washington Center
06:00PM 38.4794 -76.3636 North 417 480 17,000 -60 Descending Washington Center
06:01PM 38.5942 -76.3408 North 417 480 17,000  Level Washington Center
06:02PM 38.7069 -76.3206 North 411 473 17,000 -420 Level Washington Center
06:03PM 38.8236 -76.3006 North 411 473 16,200 -1,020 Descending Washington Center
06:04PM 38.9364 -76.2803 North 411 473 15,000 -660 Descending Washington Center
06:05PM 39.0492 -76.2597 North 411 473 15,000  Level Washington Center
06:06PM 39.1578 -76.2206 16° North 411 473 15,000 -60 Level Washington Center
06:07PM 39.2686 -76.1008 40° Northeast 425 489 14,900 -60 Descending Washington Center
06:08PM 39.3692 -76.0022 37° Northeast 445 512 14,900  Level Washington Center
06:09PM 39.4714 -75.9033 37° Northeast 451 519 14,900 -180 Level Washington Center
06:12PM 39.7167 -75.6667 37° Northeast 453 521 14,400 -600 Descending Philadelphia TRACON
06:13PM 39.8167 -75.5833 33° Northeast 436 502 13,000 -720 Descending Philadelphia TRACON
06:14PM 39.9167 -75.4833 37° Northeast 440 506 13,000  Level Philadelphia TRACON
06:15PM 40.0333 -75.3833 33° Northeast 438 504 13,000  Level Philadelphia TRACON
06:16PM 40.1167 -75.3000 37° Northeast 435 501 13,000 -840 Level Philadelphia TRACON
06:18PM 40.2667 -75.1667 34° Northeast 332 382 10,800 -1,500 Descending New York TRACON
06:19PM 40.3333 -75.1000 37° Northeast 296 341 8,900 -1,800 Descending New York TRACON
06:20PM 40.3833 -75.0167 52° Northeast 290 334 7,300 -1,620 Descending New York TRACON
06:21PM 40.4333 -74.9500 45° Northeast 281 323 5,700 -1,560 Descending New York TRACON
06:21PM 40.4833 -74.8833 45° Northeast 271 312 4,400 -900 Descending New York TRACON
06:23PM 40.5500 -74.8167 37° Northeast 256 295 4,000 -240 Descending New York TRACON
06:24PM 40.6000 -74.7667 37° Northeast 255 293 4,000  Level New York TRACON
06:24PM 40.6500 -74.7167 37° Northeast 267 307 4,000 -180 Level New York TRACON
06:26PM 40.7167 -74.6500 37° Northeast 265 305 3,700 -480 Descending New York TRACON
06:27PM 40.7667 -74.5833 45° Northeast 253 291 3,000 -360 Descending New York TRACON
06:28PM 40.8167 -74.5167 45° Northeast 261 300 3,000  Level New York TRACON
06:29PM 40.8667 -74.4333 52° Northeast 273 314 3,000  Level New York TRACON
06:30PM 40.8833 -74.3500 75° East 250 288 3,000  Level New York TRACON
06:31PM 40.9000 -74.2667 75° East 223 257 3,000 -300 Level New York TRACON
06:32PM 40.9167 -74.1833 75° East 235 270 2,400 -540 Descending New York TRACON
06:33PM 40.9500 -74.1167 56° Northeast 207 238 2,000 -240 Descending New York TRACON
06:34PM 40.9667 -74.0667 66° East 184 212 2,000 -120 Level New York TRACON
06:35PM 40.9333 -74.0500 159° South 160 184 1,800 -480 Descending New York TRACON
06:36PM 40.9000 -74.0333 159° South 151 174 1,100 -720 Descending New York TRACON
06:37PM 40.8667 -74.0333 180° South 122 140 400 -720 Descending New York TRACON